sensor_id;sensor_type;location;lat;lon;timestamp;pressure;altitude;pressure_sealevel;temperature;humidity
70370;BME280;57790;51.356;-2.906;2023-05-07T00:01:52;101561.44;;;15.08;100.00
70370;BME280;57790;51.356;-2.906;2023-05-07T00:04:53;101555.44;;;15.06;100.00
70370;BME280;57790;51.356;-2.906;2023-05-07T00:07:53;101559.25;;;15.03;100.00
70370;BME280;57790;51.356;-2.906;2023-05-07T00:10:54;101562.94;;;15.02;100.00
70370;BME280;57790;51.356;-2.906;2023-05-07T00:13:54;101558.09;;;14.98;100.00
70370;BME280;57790;51.356;-2.906;2023-05-07T00:16:55;101559.59;;;15.00;100.00
70370;BME280;57790;51.356;-2.906;2023-05-07T00:19:55;101556.44;;;14.97;100.00
70370;BME280;57790;51.356;-2.906;2023-05-07T00:22:56;101553.28;;;14.93;100.00
70370;BME280;57790;51.356;-2.906;2023-05-07T00:25:56;101551.81;;;14.91;100.00
70370;BME280;57790;51.356;-2.906;2023-05-07T00:28:56;101542.44;;;14.86;100.00
70370;BME280;57790;51.356;-2.906;2023-05-07T00:31:57;101542.44;;;14.86;100.00
70370;BME280;57790;51.356;-2.906;2023-05-07T00:34:57;101545.63;;;14.82;100.00
70370;BME280;57790;51.356;-2.906;2023-05-07T00:37:58;101547.13;;;14.84;100.00
70370;BME280;57790;51.356;-2.906;2023-05-07T00:40:58;101551.31;;;14.79;100.00
70370;BME280;57790;51.356;-2.906;2023-05-07T00:43:59;101548.00;;;14.77;100.00
70370;BME280;57790;51.356;-2.906;2023-05-07T00:47:01;101551.66;;;14.76;100.00
70370;BME280;57790;51.356;-2.906;2023-05-07T00:50:04;101561.81;;;14.72;100.00
70370;BME280;57790;51.356;-2.906;2023-05-07T00:53:06;101558.66;;;14.69;100.00
70370;BME280;57790;51.356;-2.906;2023-05-07T00:56:06;101561.34;;;14.69;100.00
70370;BME280;57790;51.356;-2.906;2023-05-07T00:59:07;101557.19;;;14.66;100.00
70370;BME280;57790;51.356;-2.906;2023-05-07T01:02:08;101561.34;;;14.69;100.00
70370;BME280;57790;51.356;-2.906;2023-05-07T01:05:11;101560.00;;;14.65;100.00
70370;BME280;57790;51.356;-2.906;2023-05-07T01:08:13;101562.03;;;14.63;100.00
70370;BME280;57790;51.356;-2.906;2023-05-07T01:11:15;101562.34;;;14.59;100.00
70370;BME280;57790;51.356;-2.906;2023-05-07T01:14:16;101568.69;;;14.58;100.00
70370;BME280;57790;51.356;-2.906;2023-05-07T01:17:17;101570.19;;;14.61;100.00
70370;BME280;57790;51.356;-2.906;2023-05-07T01:20:18;101578.03;;;14.54;100.00
70370;BME280;57790;51.356;-2.906;2023-05-07T01:23:18;101572.53;;;14.56;100.00
70370;BME280;57790;51.356;-2.906;2023-05-07T01:26:20;101576.53;;;14.52;100.00
70370;BME280;57790;51.356;-2.906;2023-05-07T01:29:20;101578.38;;;14.51;100.00
70370;BME280;57790;51.356;-2.906;2023-05-07T01:35:35;101579.72;;;14.47;100.00
70370;BME280;57790;51.356;-2.906;2023-05-07T01:38:37;101593.38;;;14.44;100.00
70370;BME280;57790;51.356;-2.906;2023-05-07T01:41:39;101592.84;;;14.41;100.00
70370;BME280;57790;51.356;-2.906;2023-05-07T01:44:39;101594.69;;;14.40;100.00
70370;BME280;57790;51.356;-2.906;2023-05-07T01:47:40;101601.19;;;14.38;100.00
70370;BME280;57790;51.356;-2.906;2023-05-07T01:50:41;101604.69;;;14.38;100.00
70370;BME280;57790;51.356;-2.906;2023-05-07T01:53:42;101604.50;;;14.40;100.00
70370;BME280;57790;51.356;-2.906;2023-05-07T01:56:44;101612.19;;;14.35;100.00
70370;BME280;57790;51.356;-2.906;2023-05-07T01:59:44;101611.53;;;14.33;100.00
70370;BME280;57790;51.356;-2.906;2023-05-07T02:02:45;101622.66;;;14.28;100.00
70370;BME280;57790;51.356;-2.906;2023-05-07T02:05:45;101620.16;;;14.26;100.00
70370;BME280;57790;51.356;-2.906;2023-05-07T02:08:46;101620.34;;;14.25;100.00
70370;BME280;57790;51.356;-2.906;2023-05-07T02:11:47;101623.00;;;14.25;100.00
70370;BME280;57790;51.356;-2.906;2023-05-07T02:14:47;101630.34;;;14.23;100.00
70370;BME280;57790;51.356;-2.906;2023-05-07T02:18:02;101642.19;;;14.20;100.00
70370;BME280;57790;51.356;-2.906;2023-05-07T02:21:03;101644.19;;;14.18;100.00
70370;BME280;57790;51.356;-2.906;2023-05-07T02:24:03;101647.69;;;14.19;100.00
70370;BME280;57790;51.356;-2.906;2023-05-07T02:27:04;101640.50;;;14.19;100.00
70370;BME280;57790;51.356;-2.906;2023-05-07T02:30:05;101653.16;;;14.17;100.00
70370;BME280;57790;51.356;-2.906;2023-05-07T02:33:06;101645.31;;;14.16;100.00
70370;BME280;57790;51.356;-2.906;2023-05-07T02:36:12;101644.81;;;14.12;100.00
70370;BME280;57790;51.356;-2.906;2023-05-07T02:39:13;101651.47;;;14.08;100.00
70370;BME280;57790;51.356;-2.906;2023-05-07T02:42:13;101648.97;;;14.07;100.00
70370;BME280;57790;51.356;-2.906;2023-05-07T02:45:14;101651.47;;;14.08;100.00
70370;BME280;57790;51.356;-2.906;2023-05-07T02:48:14;101652.81;;;14.04;100.00
70370;BME280;57790;51.356;-2.906;2023-05-07T02:51:19;101659.97;;;14.04;100.00
70370;BME280;57790;51.356;-2.906;2023-05-07T02:54:20;101661.09;;;14.01;100.00
70370;BME280;57790;51.356;-2.906;2023-05-07T02:57:20;101666.44;;;14.01;100.00
70370;BME280;57790;51.356;-2.906;2023-05-07T03:00:21;101667.28;;;14.02;100.00
70370;BME280;57790;51.356;-2.906;2023-05-07T03:03:22;101674.78;;;13.98;100.00
70370;BME280;57790;51.356;-2.906;2023-05-07T03:06:22;101672.28;;;13.96;100.00
70370;BME280;57790;51.356;-2.906;2023-05-07T03:09:22;101678.75;;;13.94;100.00
70370;BME280;57790;51.356;-2.906;2023-05-07T03:12:23;101676.44;;;13.91;100.00
70370;BME280;57790;51.356;-2.906;2023-05-07T03:15:23;101679.94;;;13.91;100.00
70370;BME280;57790;51.356;-2.906;2023-05-07T03:18:23;101683.59;;;13.90;100.00
70370;BME280;57790;51.356;-2.906;2023-05-07T03:21:24;101675.75;;;13.89;100.00
70370;BME280;57790;51.356;-2.906;2023-05-07T03:24:25;101677.06;;;13.85;100.00
70370;BME280;57790;51.356;-2.906;2023-05-07T03:27:26;101680.88;;;13.82;100.00
70370;BME280;57790;51.356;-2.906;2023-05-07T03:30:26;101682.72;;;13.82;100.00
70370;BME280;57790;51.356;-2.906;2023-05-07T03:33:27;101687.38;;;13.80;100.00
70370;BME280;57790;51.356;-2.906;2023-05-07T03:36:27;101685.69;;;13.79;100.00
70370;BME280;57790;51.356;-2.906;2023-05-07T03:39:28;101687.53;;;13.78;100.00
70370;BME280;57790;51.356;-2.906;2023-05-07T03:42:28;101689.53;;;13.76;100.00
70370;BME280;57790;51.356;-2.906;2023-05-07T03:45:28;101689.31;;;13.69;100.00
70370;BME280;57790;51.356;-2.906;2023-05-07T03:48:29;101691.16;;;13.69;100.00
70370;BME280;57790;51.356;-2.906;2023-05-07T03:51:30;101686.81;;;13.68;100.00
70370;BME280;57790;51.356;-2.906;2023-05-07T03:54:30;101691.47;;;13.66;100.00
70370;BME280;57790;51.356;-2.906;2023-05-07T03:57:31;101687.28;;;13.63;100.00
70370;BME280;57790;51.356;-2.906;2023-05-07T04:00:31;101691.94;;;13.61;100.00
70370;BME280;57790;51.356;-2.906;2023-05-07T04:03:34;101683.25;;;13.59;100.00
70370;BME280;57790;51.356;-2.906;2023-05-07T04:06:34;101683.41;;;13.58;100.00
70370;BME280;57790;51.356;-2.906;2023-05-07T04:09:35;101686.78;;;13.60;100.00
70370;BME280;57790;51.356;-2.906;2023-05-07T04:12:35;101685.25;;;13.57;100.00
70370;BME280;57790;51.356;-2.906;2023-05-07T04:15:36;101688.41;;;13.53;100.00
70370;BME280;57790;51.356;-2.906;2023-05-07T04:18:36;101686.56;;;13.53;100.00
70370;BME280;57790;51.356;-2.906;2023-05-07T04:21:36;101694.06;;;13.50;100.00
70370;BME280;57790;51.356;-2.906;2023-05-07T04:24:37;101704.88;;;13.48;100.00
70370;BME280;57790;51.356;-2.906;2023-05-07T04:27:37;101704.31;;;13.45;100.00
70370;BME280;57790;51.356;-2.906;2023-05-07T04:30:38;101707.97;;;13.44;100.00
70370;BME280;57790;51.356;-2.906;2023-05-07T04:33:39;101712.31;;;13.45;100.00
70370;BME280;57790;51.356;-2.906;2023-05-07T04:36:39;101716.97;;;13.43;100.00
70370;BME280;57790;51.356;-2.906;2023-05-07T04:39:39;101723.28;;;13.42;100.00
70370;BME280;57790;51.356;-2.906;2023-05-07T04:42:40;101719.28;;;13.37;100.00
70370;BME280;57790;51.356;-2.906;2023-05-07T04:45:40;101727.94;;;13.39;100.00
70370;BME280;57790;51.356;-2.906;2023-05-07T04:48:41;101722.78;;;13.38;100.00
70370;BME280;57790;51.356;-2.906;2023-05-07T04:51:41;101741.41;;;13.38;100.00
70370;BME280;57790;51.356;-2.906;2023-05-07T04:54:43;101749.56;;;13.36;100.00
70370;BME280;57790;51.356;-2.906;2023-05-07T04:57:43;101750.72;;;13.34;100.00
70370;BME280;57790;51.356;-2.906;2023-05-07T05:00:43;101746.53;;;13.31;100.00
70370;BME280;57790;51.356;-2.906;2023-05-07T05:03:44;101736.72;;;13.32;100.00
70370;BME280;57790;51.356;-2.906;2023-05-07T05:06:44;101738.56;;;13.31;100.00
70370;BME280;57790;51.356;-2.906;2023-05-07T05:09:44;101725.53;;;13.28;100.00
70370;BME280;57790;51.356;-2.906;2023-05-07T05:12:45;101726.69;;;13.26;100.00
70370;BME280;57790;51.356;-2.906;2023-05-07T05:15:45;101738.47;;;13.23;100.00
70370;BME280;57790;51.356;-2.906;2023-05-07T05:18:46;101751.13;;;13.21;100.00
70370;BME280;57790;51.356;-2.906;2023-05-07T05:21:46;101753.94;;;13.20;100.00
70370;BME280;57790;51.356;-2.906;2023-05-07T05:24:47;101755.63;;;13.21;100.00
70370;BME280;57790;51.356;-2.906;2023-05-07T05:27:47;101758.44;;;13.19;100.00
70370;BME280;57790;51.356;-2.906;2023-05-07T05:30:47;101762.91;;;13.19;100.00
70370;BME280;57790;51.356;-2.906;2023-05-07T05:33:48;101771.88;;;13.18;100.00
70370;BME280;57790;51.356;-2.906;2023-05-07T05:36:48;101771.03;;;13.17;100.00
70370;BME280;57790;51.356;-2.906;2023-05-07T05:39:48;101771.03;;;13.17;100.00
70370;BME280;57790;51.356;-2.906;2023-05-07T05:42:49;101768.50;;;13.16;100.00
70370;BME280;57790;51.356;-2.906;2023-05-07T05:45:49;101770.19;;;13.17;100.00
70370;BME280;57790;51.356;-2.906;2023-05-07T05:48:50;101769.09;;;13.19;100.00
70370;BME280;57790;51.356;-2.906;2023-05-07T05:51:50;101771.75;;;13.19;100.00
70370;BME280;57790;51.356;-2.906;2023-05-07T05:54:50;101783.22;;;13.20;100.00
70370;BME280;57790;51.356;-2.906;2023-05-07T05:57:51;101785.59;;;13.23;100.00
70370;BME280;57790;51.356;-2.906;2023-05-07T06:00:51;101791.44;;;13.26;100.00
70370;BME280;57790;51.356;-2.906;2023-05-07T06:03:52;101797.44;;;13.28;100.00
70370;BME280;57790;51.356;-2.906;2023-05-07T06:06:52;101798.97;;;13.31;100.00
70370;BME280;57790;51.356;-2.906;2023-05-07T06:09:53;101805.13;;;13.31;100.00
70370;BME280;57790;51.356;-2.906;2023-05-07T06:12:53;101805.41;;;13.28;100.00
70370;BME280;57790;51.356;-2.906;2023-05-07T06:15:54;101786.34;;;13.33;100.00
70370;BME280;57790;51.356;-2.906;2023-05-07T06:18:54;101797.66;;;13.35;100.00
70370;BME280;57790;51.356;-2.906;2023-05-07T06:21:55;101804.81;;;13.34;100.00
70370;BME280;57790;51.356;-2.906;2023-05-07T06:24:56;101803.34;;;13.40;100.00
70370;BME280;57790;51.356;-2.906;2023-05-07T06:27:57;101802.53;;;13.39;100.00
70370;BME280;57790;51.356;-2.906;2023-05-07T06:31:11;101807.53;;;13.43;100.00
70370;BME280;57790;51.356;-2.906;2023-05-07T06:34:11;101826.72;;;13.46;100.00
70370;BME280;57790;51.356;-2.906;2023-05-07T06:37:14;101825.91;;;13.46;100.00
70370;BME280;57790;51.356;-2.906;2023-05-07T06:40:14;101827.25;;;13.50;100.00
70370;BME280;57790;51.356;-2.906;2023-05-07T06:43:15;101832.41;;;13.51;100.00
70370;BME280;57790;51.356;-2.906;2023-05-07T06:46:16;101832.78;;;13.56;100.00
70370;BME280;57790;51.356;-2.906;2023-05-07T06:49:16;101827.69;;;13.63;100.00
70370;BME280;57790;51.356;-2.906;2023-05-07T06:52:16;101829.88;;;13.67;100.00
70370;BME280;57790;51.356;-2.906;2023-05-07T06:55:17;101826.22;;;13.68;100.00
70370;BME280;57790;51.356;-2.906;2023-05-07T06:58:19;101832.91;;;13.73;100.00
70370;BME280;57790;51.356;-2.906;2023-05-07T07:01:19;101831.06;;;13.73;100.00
70370;BME280;57790;51.356;-2.906;2023-05-07T07:04:20;101831.47;;;13.78;100.00
70370;BME280;57790;51.356;-2.906;2023-05-07T07:07:23;101833.81;;;13.81;100.00
70370;BME280;57790;51.356;-2.906;2023-05-07T07:10:23;101837.16;;;13.83;100.00
70370;BME280;57790;51.356;-2.906;2023-05-07T07:13:24;101833.31;;;13.86;100.00
70370;BME280;57790;51.356;-2.906;2023-05-07T07:16:24;101834.72;;;13.90;100.00
70370;BME280;57790;51.356;-2.906;2023-05-07T07:19:25;101846.72;;;13.94;100.00
70370;BME280;57790;51.356;-2.906;2023-05-07T07:22:26;101839.22;;;13.97;100.00
70370;BME280;57790;51.356;-2.906;2023-05-07T07:25:26;101841.56;;;14.00;100.00
70370;BME280;57790;51.356;-2.906;2023-05-07T07:28:27;101844.78;;;14.04;100.00
70370;BME280;57790;51.356;-2.906;2023-05-07T07:31:27;101851.47;;;14.08;100.00
70370;BME280;57790;51.356;-2.906;2023-05-07T07:34:27;101850.97;;;14.13;100.00
70370;BME280;57790;51.356;-2.906;2023-05-07T07:37:28;101852.50;;;14.15;100.00
70370;BME280;57790;51.356;-2.906;2023-05-07T07:40:28;101862.88;;;14.18;100.00
70370;BME280;57790;51.356;-2.906;2023-05-07T07:43:29;101868.56;;;14.23;100.00
70370;BME280;57790;51.356;-2.906;2023-05-07T07:46:29;101867.88;;;14.21;100.00
70370;BME280;57790;51.356;-2.906;2023-05-07T07:49:30;101874.41;;;14.27;100.00
70370;BME280;57790;51.356;-2.906;2023-05-07T07:52:30;101880.56;;;14.27;100.00
70370;BME280;57790;51.356;-2.906;2023-05-07T07:55:31;101883.06;;;14.29;100.00
70370;BME280;57790;51.356;-2.906;2023-05-07T07:58:32;101871.41;;;14.30;100.00
70370;BME280;57790;51.356;-2.906;2023-05-07T08:01:32;101886.56;;;14.29;100.00
70370;BME280;57790;51.356;-2.906;2023-05-07T08:04:33;101885.44;;;14.32;100.00
70370;BME280;57790;51.356;-2.906;2023-05-07T08:07:33;101889.63;;;14.35;100.00
70370;BME280;57790;51.356;-2.906;2023-05-07T08:10:34;101894.63;;;14.38;100.00
70370;BME280;57790;51.356;-2.906;2023-05-07T08:13:38;101900.50;;;14.41;100.00
70370;BME280;57790;51.356;-2.906;2023-05-07T08:16:38;101903.16;;;14.41;100.00
70370;BME280;57790;51.356;-2.906;2023-05-07T08:19:39;101904.69;;;14.44;100.00
70370;BME280;57790;51.356;-2.906;2023-05-07T08:22:39;101915.06;;;14.47;100.00
70370;BME280;57790;51.356;-2.906;2023-05-07T08:25:40;101922.38;;;14.45;100.00
70370;BME280;57790;51.356;-2.906;2023-05-07T08:28:42;101918.41;;;14.49;100.00
70370;BME280;57790;51.356;-2.906;2023-05-07T08:31:42;101922.44;;;14.53;100.00
70370;BME280;57790;51.356;-2.906;2023-05-07T08:34:43;101930.94;;;14.56;100.00
70370;BME280;57790;51.356;-2.906;2023-05-07T08:37:43;101928.28;;;14.56;100.00
70370;BME280;57790;51.356;-2.906;2023-05-07T08:40:44;101925.28;;;14.59;100.00
70370;BME280;57790;51.356;-2.906;2023-05-07T08:43:47;101927.66;;;14.63;100.00
70370;BME280;57790;51.356;-2.906;2023-05-07T08:46:49;101914.81;;;14.66;100.00
70370;BME280;57790;51.356;-2.906;2023-05-07T08:49:51;101927.84;;;14.69;100.00
70370;BME280;57790;51.356;-2.906;2023-05-07T08:52:54;101922.84;;;14.74;100.00
70370;BME280;57790;51.356;-2.906;2023-05-07T08:55:54;101931.41;;;14.78;100.00
70370;BME280;57790;51.356;-2.906;2023-05-07T08:58:55;101932.56;;;14.83;100.00
70370;BME280;57790;51.356;-2.906;2023-05-07T09:01:58;101935.75;;;14.87;100.00
70370;BME280;57790;51.356;-2.906;2023-05-07T09:04:59;101930.13;;;14.90;100.00
70370;BME280;57790;51.356;-2.906;2023-05-07T09:08:01;101931.97;;;14.98;100.00
70370;BME280;57790;51.356;-2.906;2023-05-07T09:11:02;101934.31;;;15.01;100.00
70370;BME280;57790;51.356;-2.906;2023-05-07T09:14:02;101943.53;;;15.06;100.00
70370;BME280;57790;51.356;-2.906;2023-05-07T09:17:03;101945.69;;;15.11;100.00
70370;BME280;57790;51.356;-2.906;2023-05-07T09:20:04;101935.34;;;15.16;100.00
70370;BME280;57790;51.356;-2.906;2023-05-07T09:23:08;101939.22;;;15.22;100.00
70370;BME280;57790;51.356;-2.906;2023-05-07T09:26:09;101942.41;;;15.25;100.00
70370;BME280;57790;51.356;-2.906;2023-05-07T09:29:11;101939.72;;;15.33;100.00
70370;BME280;57790;51.356;-2.906;2023-05-07T09:32:12;101933.56;;;15.41;100.00
70370;BME280;57790;51.356;-2.906;2023-05-07T09:35:16;101944.59;;;15.46;100.00
70370;BME280;57790;51.356;-2.906;2023-05-07T09:38:19;101946.47;;;15.54;100.00
70370;BME280;57790;51.356;-2.906;2023-05-07T09:41:21;101956.66;;;15.58;100.00
70370;BME280;57790;51.356;-2.906;2023-05-07T09:44:21;101954.19;;;15.65;100.00
70370;BME280;57790;51.356;-2.906;2023-05-07T09:47:24;101951.84;;;15.70;100.00
70370;BME280;57790;51.356;-2.906;2023-05-07T09:50:29;101947.66;;;15.75;100.00
70370;BME280;57790;51.356;-2.906;2023-05-07T09:53:31;101955.69;;;15.84;100.00
70370;BME280;57790;51.356;-2.906;2023-05-07T09:56:33;101958.88;;;15.87;100.00
70370;BME280;57790;51.356;-2.906;2023-05-07T09:59:34;101960.22;;;15.91;100.00
70370;BME280;57790;51.356;-2.906;2023-05-07T10:02:38;101952.69;;;15.95;100.00
70370;BME280;57790;51.356;-2.906;2023-05-07T10:05:46;101954.19;;;15.97;100.00
70370;BME280;57790;51.356;-2.906;2023-05-07T10:08:48;101961.72;;;16.02;100.00
70370;BME280;57790;51.356;-2.906;2023-05-07T10:11:49;101967.41;;;16.07;100.00
70370;BME280;57790;51.356;-2.906;2023-05-07T10:14:50;101974.91;;;16.12;100.00
70370;BME280;57790;51.356;-2.906;2023-05-07T10:17:53;101982.78;;;16.13;100.00
70370;BME280;57790;51.356;-2.906;2023-05-07T10:20:54;101986.47;;;16.20;100.00
70370;BME280;57790;51.356;-2.906;2023-05-07T10:24:05;101994.81;;;16.25;100.00
70370;BME280;57790;51.356;-2.906;2023-05-07T10:27:14;101989.13;;;16.28;100.00
70370;BME280;57790;51.356;-2.906;2023-05-07T10:33:19;101980.56;;;16.33;100.00
70370;BME280;57790;51.356;-2.906;2023-05-07T10:36:22;101979.44;;;16.35;100.00
70370;BME280;57790;51.356;-2.906;2023-05-07T10:39:24;101991.28;;;16.41;100.00
70370;BME280;57790;51.356;-2.906;2023-05-07T10:42:24;101986.75;;;16.50;100.00
70370;BME280;57790;51.356;-2.906;2023-05-07T10:45:25;101981.88;;;16.53;100.00
70370;BME280;57790;51.356;-2.906;2023-05-07T10:48:26;101994.56;;;16.59;100.00
70370;BME280;57790;51.356;-2.906;2023-05-07T10:51:27;101987.88;;;16.63;100.00
70370;BME280;57790;51.356;-2.906;2023-05-07T10:54:28;101993.78;;;16.67;100.00
70370;BME280;57790;51.356;-2.906;2023-05-07T11:03:32;102002.75;;;16.82;100.00
70370;BME280;57790;51.356;-2.906;2023-05-07T11:06:33;101996.53;;;16.90;100.00
70370;BME280;57790;51.356;-2.906;2023-05-07T11:12:54;101995.31;;;17.01;100.00
70370;BME280;57790;51.356;-2.906;2023-05-07T11:15:54;101999.97;;;17.07;100.00
70370;BME280;57790;51.356;-2.906;2023-05-07T11:18:56;101994.94;;;17.12;100.00
70370;BME280;57790;51.356;-2.906;2023-05-07T11:21:56;101996.72;;;17.19;100.00
70370;BME280;57790;51.356;-2.906;2023-05-07T11:24:59;102003.25;;;17.25;100.00
70370;BME280;57790;51.356;-2.906;2023-05-07T11:28:07;102010.59;;;17.31;100.00
70370;BME280;57790;51.356;-2.906;2023-05-07T11:31:10;102015.41;;;17.36;100.00
70370;BME280;57790;51.356;-2.906;2023-05-07T11:34:11;102018.78;;;17.38;100.00
70370;BME280;57790;51.356;-2.906;2023-05-07T11:37:19;102009.84;;;17.45;100.00
70370;BME280;57790;51.356;-2.906;2023-05-07T11:40:19;102024.56;;;17.49;100.00
70370;BME280;57790;51.356;-2.906;2023-05-07T11:43:20;102018.50;;;17.55;100.00
70370;BME280;57790;51.356;-2.906;2023-05-07T11:46:21;102022.31;;;17.61;100.00
70370;BME280;57790;51.356;-2.906;2023-05-07T11:49:25;102026.50;;;17.64;100.00
70370;BME280;57790;51.356;-2.906;2023-05-07T11:52:25;102026.34;;;17.65;100.00
70370;BME280;57790;51.356;-2.906;2023-05-07T11:55:25;102037.38;;;17.70;100.00
70370;BME280;57790;51.356;-2.906;2023-05-07T11:58:28;102040.38;;;17.75;100.00
70370;BME280;57790;51.356;-2.906;2023-05-07T12:01:29;102043.69;;;17.77;100.00
70370;BME280;57790;51.356;-2.906;2023-05-07T12:04:30;102041.34;;;17.82;100.00
70370;BME280;57790;51.356;-2.906;2023-05-07T12:07:33;102040.31;;;17.83;100.00
70370;BME280;57790;51.356;-2.906;2023-05-07T12:10:34;102038.66;;;17.82;100.00
70370;BME280;57790;51.356;-2.906;2023-05-07T12:13:34;102034.78;;;17.85;100.00
70370;BME280;57790;51.356;-2.906;2023-05-07T12:16:34;102035.25;;;17.89;100.00
70370;BME280;57790;51.356;-2.906;2023-05-07T12:19:36;102030.16;;;17.94;100.00
70370;BME280;57790;51.356;-2.906;2023-05-07T12:22:38;102027.63;;;18.00;100.00
70370;BME280;57790;51.356;-2.906;2023-05-07T12:25:39;102026.56;;;18.09;100.00
70370;BME280;57790;51.356;-2.906;2023-05-07T12:28:40;102034.69;;;18.16;100.00
70370;BME280;57790;51.356;-2.906;2023-05-07T12:31:41;102026.94;;;18.21;100.00
70370;BME280;57790;51.356;-2.906;2023-05-07T12:34:43;102027.91;;;18.28;100.00
70370;BME280;57790;51.356;-2.906;2023-05-07T12:37:43;102032.19;;;18.37;100.00
70370;BME280;57790;51.356;-2.906;2023-05-07T12:40:49;102031.06;;;18.47;100.00
70370;BME280;57790;51.356;-2.906;2023-05-07T12:43:56;102040.28;;;18.52;100.00
70370;BME280;57790;51.356;-2.906;2023-05-07T12:46:58;102034.16;;;18.58;100.00
70370;BME280;57790;51.356;-2.906;2023-05-07T12:49:59;102033.94;;;18.68;100.00
70370;BME280;57790;51.356;-2.906;2023-05-07T12:52:59;102030.31;;;18.76;100.00
70370;BME280;57790;51.356;-2.906;2023-05-07T12:56:00;102036.13;;;18.79;100.00
70370;BME280;57790;51.356;-2.906;2023-05-07T12:59:00;102038.75;;;18.87;100.00
70370;BME280;57790;51.356;-2.906;2023-05-07T13:02:01;102044.75;;;18.89;100.00
70370;BME280;57790;51.356;-2.906;2023-05-07T13:05:01;102044.50;;;18.99;100.00
70370;BME280;57790;51.356;-2.906;2023-05-07T13:08:02;102044.50;;;18.99;100.00
70370;BME280;57790;51.356;-2.906;2023-05-07T13:11:04;102050.97;;;19.05;100.00
70370;BME280;57790;51.356;-2.906;2023-05-07T13:14:05;102045.72;;;19.11;100.00
70370;BME280;57790;51.356;-2.906;2023-05-07T13:17:05;102053.19;;;19.16;100.00
70370;BME280;57790;51.356;-2.906;2023-05-07T13:20:06;102055.31;;;19.20;100.00
70370;BME280;57790;51.356;-2.906;2023-05-07T13:23:08;102057.91;;;19.28;100.00
70370;BME280;57790;51.356;-2.906;2023-05-07T13:26:08;102066.25;;;19.33;100.00
70370;BME280;57790;51.356;-2.906;2023-05-07T13:29:08;102052.63;;;19.35;100.00
70370;BME280;57790;51.356;-2.906;2023-05-07T13:32:09;102068.22;;;19.40;100.00
70370;BME280;57790;51.356;-2.906;2023-05-07T13:35:10;102062.63;;;19.41;100.00
70370;BME280;57790;51.356;-2.906;2023-05-07T13:38:10;102064.38;;;19.49;100.00
70370;BME280;57790;51.356;-2.906;2023-05-07T13:41:11;102054.91;;;19.53;100.00
70370;BME280;57790;51.356;-2.906;2023-05-07T13:44:13;102051.50;;;19.59;100.00
70370;BME280;57790;51.356;-2.906;2023-05-07T13:47:13;102050.91;;;19.64;100.00
70370;BME280;57790;51.356;-2.906;2023-05-07T13:50:13;102053.22;;;19.67;100.00
70370;BME280;57790;51.356;-2.906;2023-05-07T13:53:14;102053.50;;;19.72;100.00
70370;BME280;57790;51.356;-2.906;2023-05-07T13:56:18;102050.03;;;19.78;100.00
70370;BME280;57790;51.356;-2.906;2023-05-07T13:59:18;102053.16;;;19.81;100.00
70370;BME280;57790;51.356;-2.906;2023-05-07T14:02:18;102062.16;;;19.88;100.00
70370;BME280;57790;51.356;-2.906;2023-05-07T14:05:19;102050.81;;;19.93;100.00
70370;BME280;57790;51.356;-2.906;2023-05-07T14:08:19;102056.66;;;19.97;100.00
70370;BME280;57790;51.356;-2.906;2023-05-07T14:11:20;102063.53;;;19.99;100.00
70370;BME280;57790;51.356;-2.906;2023-05-07T14:14:21;102066.25;;;20.06;100.00
70370;BME280;57790;51.356;-2.906;2023-05-07T14:17:21;102058.63;;;20.09;100.00
70370;BME280;57790;51.356;-2.906;2023-05-07T14:20:25;102059.94;;;20.13;100.00
70370;BME280;57790;51.356;-2.906;2023-05-07T14:23:25;102057.69;;;20.17;100.00
70370;BME280;57790;51.356;-2.906;2023-05-07T14:26:27;102049.00;;;20.21;100.00
70370;BME280;57790;51.356;-2.906;2023-05-07T14:29:28;102054.28;;;20.30;100.00
70370;BME280;57790;51.356;-2.906;2023-05-07T14:32:28;102044.13;;;20.32;100.00
70370;BME280;57790;51.356;-2.906;2023-05-07T14:35:29;102046.88;;;20.38;100.00
70370;BME280;57790;51.356;-2.906;2023-05-07T14:38:29;102049.22;;;20.41;100.00
70370;BME280;57790;51.356;-2.906;2023-05-07T14:41:30;102050.69;;;20.44;100.00
70370;BME280;57790;51.356;-2.906;2023-05-07T14:44:35;102054.22;;;20.44;100.00
70370;BME280;57790;51.356;-2.906;2023-05-07T14:47:36;102063.97;;;20.45;100.00
70370;BME280;57790;51.356;-2.906;2023-05-07T14:50:36;102066.25;;;20.48;100.00
70370;BME280;57790;51.356;-2.906;2023-05-07T14:53:37;102065.22;;;20.49;100.00
70370;BME280;57790;51.356;-2.906;2023-05-07T14:56:37;102065.03;;;20.51;100.00
70370;BME280;57790;51.356;-2.906;2023-05-07T14:59:38;102072.28;;;20.50;100.00
70370;BME280;57790;51.356;-2.906;2023-05-07T15:02:38;102064.84;;;20.53;100.00
70370;BME280;57790;51.356;-2.906;2023-05-07T15:05:38;102069.03;;;20.55;100.00
70370;BME280;57790;51.356;-2.906;2023-05-07T15:08:39;102072.16;;;20.59;100.00
70370;BME280;57790;51.356;-2.906;2023-05-07T15:11:39;102072.78;;;20.61;100.00
70370;BME280;57790;51.356;-2.906;2023-05-07T15:14:41;102075.09;;;20.64;100.00
70370;BME280;57790;51.356;-2.906;2023-05-07T15:17:41;102064.31;;;20.64;100.00
70370;BME280;57790;51.356;-2.906;2023-05-07T15:20:42;102070.13;;;20.67;100.00
70370;BME280;57790;51.356;-2.906;2023-05-07T15:23:43;102068.25;;;20.68;100.00
70370;BME280;57790;51.356;-2.906;2023-05-07T15:26:44;102062.31;;;20.72;100.00
70370;BME280;57790;51.356;-2.906;2023-05-07T15:29:45;102056.50;;;20.75;100.00
70370;BME280;57790;51.356;-2.906;2023-05-07T15:32:45;102060.03;;;20.76;100.00
70370;BME280;57790;51.356;-2.906;2023-05-07T15:35:46;102050.72;;;20.78;100.00
70370;BME280;57790;51.356;-2.906;2023-05-07T15:38:46;102059.44;;;20.80;100.00